sensor_id;sensor_type;location;lat;lon;timestamp;temperature;humidity
74657;DHT22;63185;45.642;13.764;2023-04-25T00:01:25;13.70;68.20
74657;DHT22;63185;45.642;13.764;2023-04-25T00:03:50;13.70;68.40
74657;DHT22;63185;45.642;13.764;2023-04-25T00:06:16;13.70;68.70
74657;DHT22;63185;45.642;13.764;2023-04-25T00:08:43;13.60;68.90
74657;DHT22;63185;45.642;13.764;2023-04-25T00:11:09;13.70;69.10
74657;DHT22;63185;45.642;13.764;2023-04-25T00:13:35;13.60;69.10
74657;DHT22;63185;45.642;13.764;2023-04-25T00:16:01;13.50;68.50
74657;DHT22;63185;45.642;13.764;2023-04-25T00:18:27;13.60;67.60
74657;DHT22;63185;45.642;13.764;2023-04-25T00:20:54;13.60;67.40
74657;DHT22;63185;45.642;13.764;2023-04-25T00:23:20;13.70;67.30
74657;DHT22;63185;45.642;13.764;2023-04-25T00:25:50;13.80;66.50
74657;DHT22;63185;45.642;13.764;2023-04-25T00:28:16;13.80;66.70
74657;DHT22;63185;45.642;13.764;2023-04-25T00:30:42;13.80;67.00
74657;DHT22;63185;45.642;13.764;2023-04-25T00:33:08;13.80;66.60
74657;DHT22;63185;45.642;13.764;2023-04-25T00:35:35;13.80;66.40
74657;DHT22;63185;45.642;13.764;2023-04-25T00:38:01;13.80;66.00
74657;DHT22;63185;45.642;13.764;2023-04-25T00:40:27;13.80;65.90
74657;DHT22;63185;45.642;13.764;2023-04-25T00:42:53;13.80;65.60
74657;DHT22;63185;45.642;13.764;2023-04-25T00:45:19;13.90;65.50
74657;DHT22;63185;45.642;13.764;2023-04-25T00:47:45;13.90;65.50
74657;DHT22;63185;45.642;13.764;2023-04-25T00:50:12;13.90;64.70
74657;DHT22;63185;45.642;13.764;2023-04-25T00:52:43;14.10;63.70
74657;DHT22;63185;45.642;13.764;2023-04-25T00:55:10;14.20;62.60
74657;DHT22;63185;45.642;13.764;2023-04-25T00:57:38;14.20;62.90
74657;DHT22;63185;45.642;13.764;2023-04-25T01:00:07;14.30;62.60
74657;DHT22;63185;45.642;13.764;2023-04-25T01:02:35;14.30;63.10
74657;DHT22;63185;45.642;13.764;2023-04-25T01:05:01;14.20;64.00
74657;DHT22;63185;45.642;13.764;2023-04-25T01:07:28;14.10;64.00
74657;DHT22;63185;45.642;13.764;2023-04-25T01:09:53;14.10;64.10
74657;DHT22;63185;45.642;13.764;2023-04-25T01:12:19;13.90;63.80
74657;DHT22;63185;45.642;13.764;2023-04-25T01:14:46;13.90;63.90
74657;DHT22;63185;45.642;13.764;2023-04-25T01:17:12;13.90;63.20
74657;DHT22;63185;45.642;13.764;2023-04-25T01:19:38;13.90;62.80
74657;DHT22;63185;45.642;13.764;2023-04-25T01:22:04;13.90;61.90
74657;DHT22;63185;45.642;13.764;2023-04-25T01:24:33;14.00;60.70
74657;DHT22;63185;45.642;13.764;2023-04-25T01:27:00;14.10;60.80
74657;DHT22;63185;45.642;13.764;2023-04-25T01:29:28;14.10;61.00
74657;DHT22;63185;45.642;13.764;2023-04-25T01:31:54;14.10;59.80
74657;DHT22;63185;45.642;13.764;2023-04-25T01:34:20;14.20;59.40
74657;DHT22;63185;45.642;13.764;2023-04-25T01:36:50;14.20;60.10
74657;DHT22;63185;45.642;13.764;2023-04-25T01:39:17;14.20;59.90
74657;DHT22;63185;45.642;13.764;2023-04-25T01:41:43;14.20;60.50
74657;DHT22;63185;45.642;13.764;2023-04-25T01:44:08;14.10;60.90
74657;DHT22;63185;45.642;13.764;2023-04-25T01:46:34;14.00;62.00
74657;DHT22;63185;45.642;13.764;2023-04-25T01:49:01;13.90;62.70
74657;DHT22;63185;45.642;13.764;2023-04-25T01:51:26;13.80;63.60
74657;DHT22;63185;45.642;13.764;2023-04-25T01:53:52;13.70;64.50
74657;DHT22;63185;45.642;13.764;2023-04-25T01:56:19;13.60;65.40
74657;DHT22;63185;45.642;13.764;2023-04-25T01:58:45;13.60;66.10
74657;DHT22;63185;45.642;13.764;2023-04-25T02:01:11;13.50;66.40
74657;DHT22;63185;45.642;13.764;2023-04-25T02:03:37;13.40;66.50
74657;DHT22;63185;45.642;13.764;2023-04-25T02:06:03;13.40;66.20
74657;DHT22;63185;45.642;13.764;2023-04-25T02:08:28;13.30;66.60
74657;DHT22;63185;45.642;13.764;2023-04-25T02:10:55;13.30;66.60
74657;DHT22;63185;45.642;13.764;2023-04-25T02:13:21;13.20;66.30
74657;DHT22;63185;45.642;13.764;2023-04-25T02:15:47;13.20;66.40
74657;DHT22;63185;45.642;13.764;2023-04-25T02:18:12;13.20;66.50
74657;DHT22;63185;45.642;13.764;2023-04-25T02:20:38;13.20;66.70
74657;DHT22;63185;45.642;13.764;2023-04-25T02:23:04;13.20;66.60
74657;DHT22;63185;45.642;13.764;2023-04-25T02:25:29;13.20;66.10
74657;DHT22;63185;45.642;13.764;2023-04-25T02:27:55;13.20;65.60
74657;DHT22;63185;45.642;13.764;2023-04-25T02:30:21;13.20;65.00
74657;DHT22;63185;45.642;13.764;2023-04-25T02:32:47;13.20;64.90
74657;DHT22;63185;45.642;13.764;2023-04-25T02:35:12;13.20;65.20
74657;DHT22;63185;45.642;13.764;2023-04-25T02:37:39;13.20;65.40
74657;DHT22;63185;45.642;13.764;2023-04-25T02:40:05;13.20;66.10
74657;DHT22;63185;45.642;13.764;2023-04-25T02:42:32;13.10;66.00
74657;DHT22;63185;45.642;13.764;2023-04-25T02:44:57;13.10;66.50
74657;DHT22;63185;45.642;13.764;2023-04-25T02:47:23;13.10;66.40
74657;DHT22;63185;45.642;13.764;2023-04-25T02:49:49;13.10;66.30
74657;DHT22;63185;45.642;13.764;2023-04-25T02:52:15;13.00;66.00
74657;DHT22;63185;45.642;13.764;2023-04-25T02:54:41;13.00;65.90
74657;DHT22;63185;45.642;13.764;2023-04-25T02:57:07;13.00;65.90
74657;DHT22;63185;45.642;13.764;2023-04-25T02:59:33;13.00;65.40
74657;DHT22;63185;45.642;13.764;2023-04-25T03:01:59;13.00;65.60
74657;DHT22;63185;45.642;13.764;2023-04-25T03:04:24;13.00;65.80
74657;DHT22;63185;45.642;13.764;2023-04-25T03:06:51;13.00;65.90
74657;DHT22;63185;45.642;13.764;2023-04-25T03:09:17;13.00;65.70
74657;DHT22;63185;45.642;13.764;2023-04-25T03:11:44;13.00;65.60
74657;DHT22;63185;45.642;13.764;2023-04-25T03:14:10;13.00;65.60
74657;DHT22;63185;45.642;13.764;2023-04-25T03:16:36;12.90;65.80
74657;DHT22;63185;45.642;13.764;2023-04-25T03:19:02;12.90;65.80
74657;DHT22;63185;45.642;13.764;2023-04-25T03:21:28;12.90;66.60
74657;DHT22;63185;45.642;13.764;2023-04-25T03:23:54;12.90;66.60
74657;DHT22;63185;45.642;13.764;2023-04-25T03:26:20;12.80;66.90
74657;DHT22;63185;45.642;13.764;2023-04-25T03:28:46;12.80;66.90
74657;DHT22;63185;45.642;13.764;2023-04-25T03:31:11;12.80;66.80
74657;DHT22;63185;45.642;13.764;2023-04-25T03:33:37;12.80;66.80
74657;DHT22;63185;45.642;13.764;2023-04-25T03:36:03;12.80;66.80
74657;DHT22;63185;45.642;13.764;2023-04-25T03:38:28;12.80;66.80
74657;DHT22;63185;45.642;13.764;2023-04-25T03:40:54;12.80;66.70
74657;DHT22;63185;45.642;13.764;2023-04-25T03:43:21;12.80;66.10
74657;DHT22;63185;45.642;13.764;2023-04-25T03:45:47;12.80;66.50
74657;DHT22;63185;45.642;13.764;2023-04-25T03:48:13;12.80;66.10
74657;DHT22;63185;45.642;13.764;2023-04-25T03:50:38;12.90;66.40
74657;DHT22;63185;45.642;13.764;2023-04-25T03:53:04;12.90;65.90
74657;DHT22;63185;45.642;13.764;2023-04-25T03:55:30;12.90;65.80
74657;DHT22;63185;45.642;13.764;2023-04-25T03:57:57;12.90;66.60
74657;DHT22;63185;45.642;13.764;2023-04-25T04:00:24;12.90;66.50
74657;DHT22;63185;45.642;13.764;2023-04-25T04:02:50;12.90;66.30
74657;DHT22;63185;45.642;13.764;2023-04-25T04:05:15;12.90;66.50
74657;DHT22;63185;45.642;13.764;2023-04-25T04:07:41;12.90;66.10
74657;DHT22;63185;45.642;13.764;2023-04-25T04:10:11;12.90;66.00
74657;DHT22;63185;45.642;13.764;2023-04-25T04:12:37;12.90;66.30
74657;DHT22;63185;45.642;13.764;2023-04-25T04:15:07;12.90;66.40
74657;DHT22;63185;45.642;13.764;2023-04-25T04:17:33;12.90;65.90
74657;DHT22;63185;45.642;13.764;2023-04-25T04:19:59;12.90;65.90
74657;DHT22;63185;45.642;13.764;2023-04-25T04:22:25;13.00;65.30
74657;DHT22;63185;45.642;13.764;2023-04-25T04:24:50;13.00;64.60
74657;DHT22;63185;45.642;13.764;2023-04-25T04:27:19;13.00;64.40
74657;DHT22;63185;45.642;13.764;2023-04-25T04:29:46;13.10;64.70
74657;DHT22;63185;45.642;13.764;2023-04-25T04:32:13;13.10;64.60
74657;DHT22;63185;45.642;13.764;2023-04-25T04:34:39;13.10;64.40
74657;DHT22;63185;45.642;13.764;2023-04-25T04:37:05;13.10;64.20
74657;DHT22;63185;45.642;13.764;2023-04-25T04:39:32;13.20;64.20
74657;DHT22;63185;45.642;13.764;2023-04-25T04:41:58;13.20;64.10
74657;DHT22;63185;45.642;13.764;2023-04-25T04:44:25;13.20;63.90
74657;DHT22;63185;45.642;13.764;2023-04-25T04:46:51;13.20;63.40
74657;DHT22;63185;45.642;13.764;2023-04-25T04:49:17;13.40;63.10
74657;DHT22;63185;45.642;13.764;2023-04-25T04:51:43;13.50;62.80
74657;DHT22;63185;45.642;13.764;2023-04-25T04:54:11;13.60;62.90
74657;DHT22;63185;45.642;13.764;2023-04-25T04:56:37;13.70;63.40
74657;DHT22;63185;45.642;13.764;2023-04-25T04:59:02;13.80;63.50
74657;DHT22;63185;45.642;13.764;2023-04-25T05:01:28;13.80;63.10
74657;DHT22;63185;45.642;13.764;2023-04-25T05:03:56;13.80;63.50
74657;DHT22;63185;45.642;13.764;2023-04-25T05:06:29;13.90;63.60
74657;DHT22;63185;45.642;13.764;2023-04-25T05:08:55;14.10;63.10
74657;DHT22;63185;45.642;13.764;2023-04-25T05:11:22;14.10;63.10
74657;DHT22;63185;45.642;13.764;2023-04-25T05:13:49;14.20;62.90
74657;DHT22;63185;45.642;13.764;2023-04-25T05:16:14;14.30;62.60
74657;DHT22;63185;45.642;13.764;2023-04-25T05:18:41;14.30;62.70
74657;DHT22;63185;45.642;13.764;2023-04-25T05:21:07;14.40;62.10
74657;DHT22;63185;45.642;13.764;2023-04-25T05:23:33;14.40;62.10
74657;DHT22;63185;45.642;13.764;2023-04-25T05:25:59;14.50;60.80
74657;DHT22;63185;45.642;13.764;2023-04-25T05:28:25;14.60;60.80
74657;DHT22;63185;45.642;13.764;2023-04-25T05:30:51;14.70;60.10
74657;DHT22;63185;45.642;13.764;2023-04-25T05:33:17;14.80;59.80
74657;DHT22;63185;45.642;13.764;2023-04-25T05:35:42;14.80;60.10
74657;DHT22;63185;45.642;13.764;2023-04-25T05:38:08;14.90;59.80
74657;DHT22;63185;45.642;13.764;2023-04-25T05:40:34;15.10;59.00
74657;DHT22;63185;45.642;13.764;2023-04-25T05:43:00;15.10;58.70
74657;DHT22;63185;45.642;13.764;2023-04-25T05:45:26;15.30;57.90
74657;DHT22;63185;45.642;13.764;2023-04-25T05:47:51;15.50;57.90
74657;DHT22;63185;45.642;13.764;2023-04-25T05:50:17;15.60;57.00
74657;DHT22;63185;45.642;13.764;2023-04-25T05:52:43;15.70;57.30
74657;DHT22;63185;45.642;13.764;2023-04-25T05:55:09;15.80;56.70
74657;DHT22;63185;45.642;13.764;2023-04-25T05:57:35;15.70;55.00
74657;DHT22;63185;45.642;13.764;2023-04-25T06:00:01;15.80;54.50
74657;DHT22;63185;45.642;13.764;2023-04-25T06:02:26;16.00;55.10
74657;DHT22;63185;45.642;13.764;2023-04-25T06:04:52;16.10;53.70
74657;DHT22;63185;45.642;13.764;2023-04-25T06:07:19;16.20;53.70
74657;DHT22;63185;45.642;13.764;2023-04-25T06:09:45;16.40;54.10
74657;DHT22;63185;45.642;13.764;2023-04-25T06:12:11;16.40;53.60
74657;DHT22;63185;45.642;13.764;2023-04-25T06:14:37;16.50;53.40
74657;DHT22;63185;45.642;13.764;2023-04-25T06:17:03;16.60;53.00
74657;DHT22;63185;45.642;13.764;2023-04-25T06:19:35;16.80;52.80
74657;DHT22;63185;45.642;13.764;2023-04-25T06:22:01;16.90;51.90
74657;DHT22;63185;45.642;13.764;2023-04-25T06:24:28;16.90;52.40
74657;DHT22;63185;45.642;13.764;2023-04-25T06:26:54;16.90;52.20
74657;DHT22;63185;45.642;13.764;2023-04-25T06:29:19;16.90;51.90
74657;DHT22;63185;45.642;13.764;2023-04-25T06:31:45;16.80;52.20
74657;DHT22;63185;45.642;13.764;2023-04-25T06:34:11;16.90;51.90
74657;DHT22;63185;45.642;13.764;2023-04-25T06:36:37;16.80;51.50
74657;DHT22;63185;45.642;13.764;2023-04-25T06:39:02;16.80;50.80
74657;DHT22;63185;45.642;13.764;2023-04-25T06:41:28;16.90;51.80
74657;DHT22;63185;45.642;13.764;2023-04-25T06:43:54;16.90;50.60
74657;DHT22;63185;45.642;13.764;2023-04-25T06:46:20;16.80;50.90
74657;DHT22;63185;45.642;13.764;2023-04-25T06:48:46;16.90;51.60
74657;DHT22;63185;45.642;13.764;2023-04-25T06:51:12;16.90;51.70
74657;DHT22;63185;45.642;13.764;2023-04-25T06:53:39;16.90;51.50
74657;DHT22;63185;45.642;13.764;2023-04-25T06:56:05;16.90;51.10
74657;DHT22;63185;45.642;13.764;2023-04-25T06:58:31;17.10;51.00
74657;DHT22;63185;45.642;13.764;2023-04-25T07:00:57;16.70;52.20
74657;DHT22;63185;45.642;13.764;2023-04-25T07:03:22;16.20;59.70
74657;DHT22;63185;45.642;13.764;2023-04-25T07:05:49;15.10;67.20
74657;DHT22;63185;45.642;13.764;2023-04-25T07:08:15;15.20;68.50
74657;DHT22;63185;45.642;13.764;2023-04-25T07:10:41;14.70;71.00
74657;DHT22;63185;45.642;13.764;2023-04-25T07:13:07;14.60;73.00
74657;DHT22;63185;45.642;13.764;2023-04-25T07:15:33;14.50;73.30
74657;DHT22;63185;45.642;13.764;2023-04-25T07:17:58;14.60;73.60
74657;DHT22;63185;45.642;13.764;2023-04-25T07:20:24;14.60;72.70
74657;DHT22;63185;45.642;13.764;2023-04-25T07:22:50;14.80;71.70
74657;DHT22;63185;45.642;13.764;2023-04-25T07:25:17;14.90;70.70
74657;DHT22;63185;45.642;13.764;2023-04-25T07:27:42;15.20;68.90
74657;DHT22;63185;45.642;13.764;2023-04-25T07:30:08;15.40;66.00
74657;DHT22;63185;45.642;13.764;2023-04-25T07:32:34;15.60;65.20
74657;DHT22;63185;45.642;13.764;2023-04-25T07:35:00;15.70;64.60
74657;DHT22;63185;45.642;13.764;2023-04-25T07:37:27;15.80;64.50
74657;DHT22;63185;45.642;13.764;2023-04-25T07:39:53;15.90;64.70
74657;DHT22;63185;45.642;13.764;2023-04-25T07:42:18;15.80;64.70
74657;DHT22;63185;45.642;13.764;2023-04-25T07:44:44;15.90;64.90
74657;DHT22;63185;45.642;13.764;2023-04-25T07:47:10;15.90;65.00
74657;DHT22;63185;45.642;13.764;2023-04-25T07:49:36;15.80;66.20
74657;DHT22;63185;45.642;13.764;2023-04-25T07:52:04;15.70;67.10
74657;DHT22;63185;45.642;13.764;2023-04-25T07:54:31;15.50;69.30
74657;DHT22;63185;45.642;13.764;2023-04-25T07:56:58;15.40;71.00
74657;DHT22;63185;45.642;13.764;2023-04-25T07:59:24;15.30;72.50
74657;DHT22;63185;45.642;13.764;2023-04-25T08:01:50;15.00;74.00
74657;DHT22;63185;45.642;13.764;2023-04-25T08:04:16;14.80;74.30
74657;DHT22;63185;45.642;13.764;2023-04-25T08:06:42;14.60;73.90
74657;DHT22;63185;45.642;13.764;2023-04-25T08:09:08;14.70;74.30
74657;DHT22;63185;45.642;13.764;2023-04-25T08:11:35;14.70;74.10
74657;DHT22;63185;45.642;13.764;2023-04-25T08:14:01;14.60;74.10
74657;DHT22;63185;45.642;13.764;2023-04-25T08:16:27;14.70;74.20
74657;DHT22;63185;45.642;13.764;2023-04-25T08:18:56;14.60;74.60
74657;DHT22;63185;45.642;13.764;2023-04-25T08:21:21;14.60;75.00
74657;DHT22;63185;45.642;13.764;2023-04-25T08:23:47;14.60;74.70
74657;DHT22;63185;45.642;13.764;2023-04-25T08:26:13;14.70;74.20
74657;DHT22;63185;45.642;13.764;2023-04-25T08:28:38;14.60;74.40
74657;DHT22;63185;45.642;13.764;2023-04-25T08:31:04;14.60;74.60
74657;DHT22;63185;45.642;13.764;2023-04-25T08:33:30;14.60;74.60
74657;DHT22;63185;45.642;13.764;2023-04-25T08:35:57;14.60;74.60
74657;DHT22;63185;45.642;13.764;2023-04-25T08:38:22;14.70;74.50
74657;DHT22;63185;45.642;13.764;2023-04-25T08:40:51;14.70;73.90
74657;DHT22;63185;45.642;13.764;2023-04-25T08:43:19;14.70;73.70
74657;DHT22;63185;45.642;13.764;2023-04-25T08:45:45;14.70;73.70
74657;DHT22;63185;45.642;13.764;2023-04-25T08:48:16;14.80;73.90
74657;DHT22;63185;45.642;13.764;2023-04-25T08:50:52;14.80;73.30
74657;DHT22;63185;45.642;13.764;2023-04-25T08:53:26;14.60;73.20
74657;DHT22;63185;45.642;13.764;2023-04-25T08:55:54;14.70;73.50
74657;DHT22;63185;45.642;13.764;2023-04-25T08:58:20;14.60;73.00
74657;DHT22;63185;45.642;13.764;2023-04-25T09:00:47;14.60;73.10
74657;DHT22;63185;45.642;13.764;2023-04-25T09:03:13;14.50;73.70
74657;DHT22;63185;45.642;13.764;2023-04-25T09:05:40;14.40;74.30
74657;DHT22;63185;45.642;13.764;2023-04-25T09:08:06;14.30;74.00
74657;DHT22;63185;45.642;13.764;2023-04-25T09:10:32;14.20;74.60
74657;DHT22;63185;45.642;13.764;2023-04-25T09:15:29;14.30;76.70
74657;DHT22;63185;45.642;13.764;2023-04-25T09:18:01;14.30;76.80
74657;DHT22;63185;45.642;13.764;2023-04-25T09:20:28;14.20;77.10
74657;DHT22;63185;45.642;13.764;2023-04-25T09:23:04;14.30;77.10
74657;DHT22;63185;45.642;13.764;2023-04-25T09:25:37;14.20;76.40
74657;DHT22;63185;45.642;13.764;2023-04-25T09:28:05;14.40;76.10
74657;DHT22;63185;45.642;13.764;2023-04-25T09:30:34;14.40;75.20
74657;DHT22;63185;45.642;13.764;2023-04-25T09:33:07;14.30;75.20
74657;DHT22;63185;45.642;13.764;2023-04-25T09:35:43;14.30;75.00
74657;DHT22;63185;45.642;13.764;2023-04-25T09:38:14;14.20;75.70
74657;DHT22;63185;45.642;13.764;2023-04-25T09:40:44;14.40;75.40
74657;DHT22;63185;45.642;13.764;2023-04-25T09:43:19;14.20;75.50
74657;DHT22;63185;45.642;13.764;2023-04-25T09:45:46;14.20;76.00
74657;DHT22;63185;45.642;13.764;2023-04-25T09:48:22;14.20;76.00
74657;DHT22;63185;45.642;13.764;2023-04-25T09:51:07;14.30;75.70
74657;DHT22;63185;45.642;13.764;2023-04-25T09:53:37;14.10;75.80
74657;DHT22;63185;45.642;13.764;2023-04-25T09:56:08;14.20;76.00
74657;DHT22;63185;45.642;13.764;2023-04-25T09:58:35;14.10;75.70
74657;DHT22;63185;45.642;13.764;2023-04-25T10:01:03;14.20;76.00
74657;DHT22;63185;45.642;13.764;2023-04-25T10:03:30;14.20;75.50
74657;DHT22;63185;45.642;13.764;2023-04-25T10:05:59;14.30;74.80
74657;DHT22;63185;45.642;13.764;2023-04-25T10:08:32;14.30;74.60
74657;DHT22;63185;45.642;13.764;2023-04-25T10:11:03;14.30;74.00
74657;DHT22;63185;45.642;13.764;2023-04-25T10:13:31;14.20;74.00
74657;DHT22;63185;45.642;13.764;2023-04-25T10:16:03;14.10;74.20
74657;DHT22;63185;45.642;13.764;2023-04-25T10:18:30;14.20;74.70
74657;DHT22;63185;45.642;13.764;2023-04-25T10:20:59;14.20;74.70
74657;DHT22;63185;45.642;13.764;2023-04-25T10:23:25;14.30;74.50
74657;DHT22;63185;45.642;13.764;2023-04-25T10:25:52;14.30;73.90
74657;DHT22;63185;45.642;13.764;2023-04-25T10:28:19;14.20;73.80
74657;DHT22;63185;45.642;13.764;2023-04-25T10:31:01;14.40;73.70
74657;DHT22;63185;45.642;13.764;2023-04-25T10:33:37;14.60;72.60
74657;DHT22;63185;45.642;13.764;2023-04-25T10:38:36;14.50;72.10
74657;DHT22;63185;45.642;13.764;2023-04-25T10:41:07;14.40;70.10
74657;DHT22;63185;45.642;13.764;2023-04-25T10:43:41;14.40;69.70
74657;DHT22;63185;45.642;13.764;2023-04-25T10:46:19;14.40;69.70
74657;DHT22;63185;45.642;13.764;2023-04-25T10:48:47;14.60;69.70
74657;DHT22;63185;45.642;13.764;2023-04-25T10:51:27;14.70;69.10
74657;DHT22;63185;45.642;13.764;2023-04-25T10:54:04;14.70;68.90
74657;DHT22;63185;45.642;13.764;2023-04-25T10:56:33;14.70;68.80
74657;DHT22;63185;45.642;13.764;2023-04-25T10:59:18;14.60;69.60
74657;DHT22;63185;45.642;13.764;2023-04-25T11:01:47;14.60;71.10
74657;DHT22;63185;45.642;13.764;2023-04-25T11:09:49;14.70;70.30
74657;DHT22;63185;45.642;13.764;2023-04-25T11:12:15;14.60;69.20
74657;DHT22;63185;45.642;13.764;2023-04-25T11:14:42;14.60;70.10
74657;DHT22;63185;45.642;13.764;2023-04-25T11:17:08;14.50;70.00
74657;DHT22;63185;45.642;13.764;2023-04-25T11:19:35;14.40;70.10
74657;DHT22;63185;45.642;13.764;2023-04-25T11:22:02;14.40;70.70
74657;DHT22;63185;45.642;13.764;2023-04-25T11:24:35;14.40;70.90
74657;DHT22;63185;45.642;13.764;2023-04-25T11:27:04;14.20;71.30
74657;DHT22;63185;45.642;13.764;2023-04-25T11:29:32;14.20;71.20
74657;DHT22;63185;45.642;13.764;2023-04-25T11:31:58;14.20;71.70
74657;DHT22;63185;45.642;13.764;2023-04-25T11:34:25;14.30;70.80
74657;DHT22;63185;45.642;13.764;2023-04-25T11:36:52;14.30;70.60
74657;DHT22;63185;45.642;13.764;2023-04-25T11:39:19;14.00;72.20
74657;DHT22;63185;45.642;13.764;2023-04-25T11:41:45;13.80;73.30
74657;DHT22;63185;45.642;13.764;2023-04-25T11:44:11;14.10;73.50
74657;DHT22;63185;45.642;13.764;2023-04-25T11:46:37;14.00;73.60
74657;DHT22;63185;45.642;13.764;2023-04-25T11:49:03;14.10;72.60
74657;DHT22;63185;45.642;13.764;2023-04-25T11:51:30;14.10;72.40
74657;DHT22;63185;45.642;13.764;2023-04-25T11:54:03;13.90;71.50
74657;DHT22;63185;45.642;13.764;2023-04-25T11:56:28;14.10;71.80
74657;DHT22;63185;45.642;13.764;2023-04-25T12:01:31;13.90;72.20
74657;DHT22;63185;45.642;13.764;2023-04-25T12:03:58;14.00;71.80
74657;DHT22;63185;45.642;13.764;2023-04-25T12:06:30;14.00;71.10
74657;DHT22;63185;45.642;13.764;2023-04-25T12:09:03;14.00;71.50
74657;DHT22;63185;45.642;13.764;2023-04-25T12:11:30;13.90;71.20
74657;DHT22;63185;45.642;13.764;2023-04-25T12:14:07;13.90;71.10
74657;DHT22;63185;45.642;13.764;2023-04-25T12:16:57;13.80;71.40
74657;DHT22;63185;45.642;13.764;2023-04-25T12:19:23;13.70;72.30
74657;DHT22;63185;45.642;13.764;2023-04-25T12:21:50;13.90;72.30
74657;DHT22;63185;45.642;13.764;2023-04-25T12:24:23;13.90;72.70
74657;DHT22;63185;45.642;13.764;2023-04-25T12:27:05;13.90;72.30
74657;DHT22;63185;45.642;13.764;2023-04-25T12:29:32;13.90;73.10
74657;DHT22;63185;45.642;13.764;2023-04-25T12:31:58;14.00;72.20
74657;DHT22;63185;45.642;13.764;2023-04-25T12:34:25;14.10;71.40
74657;DHT22;63185;45.642;13.764;2023-04-25T12:36:51;14.10;71.30
74657;DHT22;63185;45.642;13.764;2023-04-25T12:39:26;14.30;71.20
74657;DHT22;63185;45.642;13.764;2023-04-25T12:41:52;14.30;70.80
74657;DHT22;63185;45.642;13.764;2023-04-25T12:44:19;14.50;70.60
74657;DHT22;63185;45.642;13.764;2023-04-25T12:46:45;14.50;71.20
74657;DHT22;63185;45.642;13.764;2023-04-25T12:49:12;14.50;71.00
74657;DHT22;63185;45.642;13.764;2023-04-25T12:51:37;14.60;70.60
74657;DHT22;63185;45.642;13.764;2023-04-25T12:54:05;14.40;71.20
74657;DHT22;63185;45.642;13.764;2023-04-25T12:56:32;14.50;71.20
74657;DHT22;63185;45.642;13.764;2023-04-25T12:58:58;14.70;70.90
74657;DHT22;63185;45.642;13.764;2023-04-25T13:01:25;14.90;70.30
74657;DHT22;63185;45.642;13.764;2023-04-25T13:03:53;15.00;70.10
74657;DHT22;63185;45.642;13.764;2023-04-25T13:06:21;15.20;68.80
74657;DHT22;63185;45.642;13.764;2023-04-25T13:08:48;15.40;68.90
74657;DHT22;63185;45.642;13.764;2023-04-25T13:11:14;15.70;68.40
74657;DHT22;63185;45.642;13.764;2023-04-25T13:13:43;16.00;67.10
74657;DHT22;63185;45.642;13.764;2023-04-25T13:16:09;16.00;67.10
74657;DHT22;63185;45.642;13.764;2023-04-25T13:18:35;16.10;67.20
74657;DHT22;63185;45.642;13.764;2023-04-25T13:21:01;15.60;67.70
74657;DHT22;63185;45.642;13.764;2023-04-25T13:23:28;15.50;68.60
74657;DHT22;63185;45.642;13.764;2023-04-25T13:25:55;15.40;68.30
74657;DHT22;63185;45.642;13.764;2023-04-25T13:28:26;15.20;67.20
74657;DHT22;63185;45.642;13.764;2023-04-25T13:30:52;15.20;67.80
74657;DHT22;63185;45.642;13.764;2023-04-25T13:33:18;15.30;68.10
74657;DHT22;63185;45.642;13.764;2023-04-25T13:35:47;15.30;68.30
74657;DHT22;63185;45.642;13.764;2023-04-25T13:38:22;15.60;68.50
74657;DHT22;63185;45.642;13.764;2023-04-25T13:40:49;15.50;67.80
74657;DHT22;63185;45.642;13.764;2023-04-25T13:43:15;15.80;67.60
74657;DHT22;63185;45.642;13.764;2023-04-25T13:45:40;15.70;66.90
74657;DHT22;63185;45.642;13.764;2023-04-25T13:48:06;15.60;67.90
74657;DHT22;63185;45.642;13.764;2023-04-25T13:50:32;15.70;67.80
74657;DHT22;63185;45.642;13.764;2023-04-25T13:52:58;15.90;66.40
74657;DHT22;63185;45.642;13.764;2023-04-25T13:55:23;15.60;67.40
74657;DHT22;63185;45.642;13.764;2023-04-25T13:57:49;15.60;67.70
74657;DHT22;63185;45.642;13.764;2023-04-25T14:00:15;15.60;67.30
74657;DHT22;63185;45.642;13.764;2023-04-25T14:02:41;15.80;67.00
74657;DHT22;63185;45.642;13.764;2023-04-25T14:05:07;15.90;65.00
74657;DHT22;63185;45.642;13.764;2023-04-25T14:07:34;15.90;63.90
74657;DHT22;63185;45.642;13.764;2023-04-25T14:10:00;16.10;64.50
74657;DHT22;63185;45.642;13.764;2023-04-25T14:12:26;16.10;63.90
74657;DHT22;63185;45.642;13.764;2023-04-25T14:14:52;16.00;64.00
74657;DHT22;63185;45.642;13.764;2023-04-25T14:17:20;15.60;64.80
74657;DHT22;63185;45.642;13.764;2023-04-25T14:19:46;15.60;65.40
74657;DHT22;63185;45.642;13.764;2023-04-25T14:22:14;15.60;66.40
74657;DHT22;63185;45.642;13.764;2023-04-25T14:24:40;15.60;65.70
74657;DHT22;63185;45.642;13.764;2023-04-25T14:27:06;15.60;67.60
74657;DHT22;63185;45.642;13.764;2023-04-25T14:29:32;15.60;67.40
74657;DHT22;63185;45.642;13.764;2023-04-25T14:31:57;15.80;65.40
74657;DHT22;63185;45.642;13.764;2023-04-25T14:34:24;15.70;64.00
74657;DHT22;63185;45.642;13.764;2023-04-25T14:36:51;15.90;64.30
74657;DHT22;63185;45.642;13.764;2023-04-25T14:39:17;16.40;62.40
74657;DHT22;63185;45.642;13.764;2023-04-25T14:41:44;17.10;60.30
74657;DHT22;63185;45.642;13.764;2023-04-25T14:44:09;17.40;58.20
74657;DHT22;63185;45.642;13.764;2023-04-25T14:46:36;17.80;57.20
74657;DHT22;63185;45.642;13.764;2023-04-25T14:49:02;18.10;55.70
74657;DHT22;63185;45.642;13.764;2023-04-25T14:51:28;17.40;56.80
74657;DHT22;63185;45.642;13.764;2023-04-25T14:53:55;17.40;57.90
74657;DHT22;63185;45.642;13.764;2023-04-25T14:56:20;17.40;58.00
74657;DHT22;63185;45.642;13.764;2023-04-25T14:58:46;17.20;58.60
74657;DHT22;63185;45.642;13.764;2023-04-25T15:01:12;17.00;59.80
74657;DHT22;63185;45.642;13.764;2023-04-25T15:03:39;17.50;58.70
74657;DHT22;63185;45.642;13.764;2023-04-25T15:06:05;18.00;57.00
74657;DHT22;63185;45.642;13.764;2023-04-25T15:08:31;18.00;56.10
74657;DHT22;63185;45.642;13.764;2023-04-25T15:10:58;18.00;57.20
74657;DHT22;63185;45.642;13.764;2023-04-25T15:13:24;17.60;58.40
74657;DHT22;63185;45.642;13.764;2023-04-25T15:15:51;17.80;58.10
74657;DHT22;63185;45.642;13.764;2023-04-25T15:18:20;18.50;57.90
74657;DHT22;63185;45.642;13.764;2023-04-25T15:20:48;18.90;54.40
74657;DHT22;63185;45.642;13.764;2023-04-25T15:23:14;19.50;53.80
74657;DHT22;63185;45.642;13.764;2023-04-25T15:25:40;20.10;51.50
74657;DHT22;63185;45.642;13.764;2023-04-25T15:28:05;20.50;50.00